Time;durP1;ratioP1;P1;durP2;ratioP2;P2;SDS_P1;SDS_P2;PMS_P1;PMS_P2;Temp;Humidity;BMP_temperature;BMP_pressure;BME280_temperature;BME280_humidity;BME280_pressure;Samples;Min_cycle;Max_cycle;Signal;HPM_P1;HPM_P2
2022/03/14 00:01:49;;;;;;;3.45;2.00;;;7.00;55.60;;;;;;4435519;32;20193;-65
2022/03/14 00:04:15;;;;;;;6.62;2.92;;;7.00;55.80;;;;;;4436778;32;20127;-65
2022/03/14 00:06:40;;;;;;;2.17;1.42;;;7.00;55.80;;;;;;4438223;32;20076;-65
2022/03/14 00:09:07;;;;;;;2.60;1.48;;;7.00;55.80;;;;;;4433345;32;20077;-65
2022/03/14 00:11:35;;;;;;;7.37;2.60;;;7.10;56.00;;;;;;4430960;32;20058;-65
2022/03/14 00:14:07;;;;;;;5.62;2.72;;;7.10;55.70;;;;;;4425293;32;20077;-65
2022/03/14 00:16:35;;;;;;;0.90;0.90;;;7.00;55.60;;;;;;4432712;32;20074;-65
2022/03/14 00:19:02;;;;;;;3.40;2.55;;;6.90;56.00;;;;;;4438177;32;20544;-65
2022/03/14 00:21:30;;;;;;;2.10;1.48;;;6.90;56.20;;;;;;4430091;32;20108;-65
2022/03/14 00:23:57;;;;;;;1.42;1.30;;;6.80;56.10;;;;;;4432206;32;20089;-66
2022/03/14 00:26:23;;;;;;;12.40;3.50;;;6.80;56.50;;;;;;4434873;32;20077;-65
2022/03/14 00:28:49;;;;;;;1.60;1.50;;;6.80;56.60;;;;;;4435928;32;20136;-65
2022/03/14 00:31:15;;;;;;;3.87;1.70;;;6.80;56.30;;;;;;4422938;32;20921;-65
2022/03/14 00:33:41;;;;;;;9.77;3.37;;;6.90;56.20;;;;;;4438411;32;20069;-65
2022/03/14 00:36:08;;;;;;;4.15;2.50;;;6.80;56.00;;;;;;4427217;32;20559;-65
2022/03/14 00:38:36;;;;;;;2.15;1.90;;;6.80;56.30;;;;;;4434408;32;20065;-65
2022/03/14 00:41:02;;;;;;;5.28;1.60;;;6.70;56.50;;;;;;4439955;32;20147;-65
2022/03/14 00:43:28;;;;;;;6.12;2.00;;;6.70;56.30;;;;;;4432294;32;20088;-65
2022/03/14 00:45:53;;;;;;;2.62;1.98;;;6.80;56.30;;;;;;4435482;32;20497;-65
2022/03/14 00:48:19;;;;;;;6.37;2.15;;;6.80;56.40;;;;;;4440474;32;20162;-65
2022/03/14 00:50:44;;;;;;;2.00;1.40;;;6.80;56.30;;;;;;4436399;32;20399;-65
2022/03/14 00:53:10;;;;;;;3.60;1.37;;;6.70;56.60;;;;;;4420101;32;20135;-65
2022/03/14 00:55:35;;;;;;;5.87;2.28;;;6.70;56.40;;;;;;4435160;32;20072;-65
2022/03/14 00:58:01;;;;;;;2.17;1.62;;;6.60;56.70;;;;;;4439011;32;20097;-65
2022/03/14 01:00:27;;;;;;;2.28;1.62;;;6.60;56.70;;;;;;4424568;32;20490;-65
2022/03/14 01:02:52;;;;;;;3.75;1.83;;;6.50;56.70;;;;;;4432657;32;20078;-65
2022/03/14 01:05:19;;;;;;;1.65;1.55;;;6.60;56.90;;;;;;4434404;32;20108;-66
2022/03/14 01:07:44;;;;;;;1.37;1.00;;;6.50;57.10;;;;;;4420776;32;20550;-65
2022/03/14 01:10:10;;;;;;;4.68;2.17;;;6.40;57.00;;;;;;4431906;32;20077;-65
2022/03/14 01:12:35;;;;;;;5.75;3.03;;;6.40;57.30;;;;;;4434707;32;20142;-65
2022/03/14 01:15:02;;;;;;;3.00;1.83;;;6.30;57.30;;;;;;4435235;32;20120;-65
2022/03/14 01:17:27;;;;;;;23.73;2.65;;;6.30;57.60;;;;;;4441306;32;20127;-65
2022/03/14 01:19:53;;;;;;;5.32;2.37;;;6.30;57.30;;;;;;4424995;32;20078;-65
2022/03/14 01:22:19;;;;;;;9.45;3.90;;;6.40;57.60;;;;;;4433133;32;20128;-65
2022/03/14 01:24:44;;;;;;;3.15;1.90;;;6.30;57.80;;;;;;4420095;32;20528;-65
2022/03/14 01:27:10;;;;;;;3.87;2.20;;;6.30;57.70;;;;;;4436144;32;20078;-65
2022/03/14 01:29:36;;;;;;;1.83;1.33;;;6.30;57.60;;;;;;4437659;32;20128;-65
2022/03/14 01:32:03;;;;;;;7.43;2.83;;;6.30;57.60;;;;;;4429743;32;20082;-65
2022/03/14 01:34:29;;;;;;;4.07;2.05;;;6.10;57.70;;;;;;4423398;32;20069;-65
2022/03/14 01:36:55;;;;;;;3.47;2.28;;;6.10;58.10;;;;;;4439070;32;20077;-65
2022/03/14 01:39:20;;;;;;;1.25;1.17;;;5.90;58.10;;;;;;4436741;32;20458;-65
2022/03/14 01:41:46;;;;;;;1.35;1.30;;;5.90;58.20;;;;;;4437954;32;20103;-64
2022/03/14 01:44:11;;;;;;;2.03;1.25;;;5.90;58.30;;;;;;4439177;32;20077;-65
2022/03/14 01:46:37;;;;;;;6.60;1.73;;;5.80;58.40;;;;;;4436439;32;20089;-65
2022/03/14 01:49:04;;;;;;;7.93;3.67;;;5.70;58.60;;;;;;4436796;32;20061;-65
2022/03/14 01:51:30;;;;;;;3.60;1.87;;;5.80;58.30;;;;;;4437412;32;20097;-65
2022/03/14 01:53:56;;;;;;;3.25;1.65;;;5.80;58.40;;;;;;4424409;32;20085;-65
2022/03/14 01:56:23;;;;;;;5.07;1.25;;;5.80;58.60;;;;;;4438103;32;20081;-65
2022/03/14 01:58:50;;;;;;;4.22;2.55;;;5.70;58.60;;;;;;4442653;32;20057;-65
2022/03/14 02:01:16;;;;;;;2.08;1.50;;;5.70;58.90;;;;;;4431650;32;20121;-65
2022/03/14 02:03:42;;;;;;;1.92;1.52;;;5.70;58.50;;;;;;4444061;32;20069;-65
2022/03/14 02:06:08;;;;;;;9.32;3.00;;;5.60;58.70;;;;;;4440108;32;20077;-65
2022/03/14 02:08:35;;;;;;;4.95;1.75;;;5.60;58.70;;;;;;4440392;32;20533;-65
2022/03/14 02:11:00;;;;;;;1.30;1.20;;;5.60;58.70;;;;;;4433959;32;20439;-65
2022/03/14 02:13:26;;;;;;;1.77;1.65;;;5.50;58.80;;;;;;4434956;32;20077;-65
2022/03/14 02:15:51;;;;;;;5.40;2.37;;;5.50;58.90;;;;;;4437588;32;20102;-65
2022/03/14 02:18:17;;;;;;;2.83;2.28;;;5.50;58.90;;;;;;4435912;32;20077;-65
2022/03/14 02:20:43;;;;;;;3.37;1.87;;;5.40;59.70;;;;;;4430796;32;20068;-65
2022/03/14 02:23:08;;;;;;;4.45;2.22;;;5.50;59.40;;;;;;4429641;32;20120;-65
2022/03/14 02:25:34;;;;;;;6.40;1.83;;;5.70;59.30;;;;;;4433723;32;20545;-66
2022/03/14 02:28:00;;;;;;;4.95;2.80;;;5.60;59.10;;;;;;4437818;32;20069;-65
2022/03/14 02:30:25;;;;;;;5.30;1.60;;;5.60;59.00;;;;;;4434913;32;20069;-65
2022/03/14 02:32:51;;;;;;;6.60;2.22;;;5.50;59.20;;;;;;4440972;32;20073;-65
2022/03/14 02:35:17;;;;;;;3.33;1.70;;;5.40;59.40;;;;;;4434948;32;20161;-65
2022/03/14 02:37:44;;;;;;;1.42;1.12;;;5.50;59.20;;;;;;4426312;32;20497;-65
2022/03/14 02:40:10;;;;;;;1.83;1.62;;;5.40;59.40;;;;;;4418807;32;20089;-65
2022/03/14 02:42:36;;;;;;;1.15;1.00;;;5.40;59.40;;;;;;4430014;32;20061;-65
2022/03/14 02:45:02;;;;;;;4.15;2.08;;;5.40;59.60;;;;;;4436129;32;20525;-65
2022/03/14 02:47:27;;;;;;;3.58;2.55;;;5.30;59.60;;;;;;4438000;32;20057;-65
2022/03/14 02:49:53;;;;;;;8.35;2.70;;;5.30;59.80;;;;;;4427840;32;20073;-65
2022/03/14 02:52:18;;;;;;;11.45;1.50;;;5.40;59.60;;;;;;4429706;32;20065;-65
2022/03/14 02:54:44;;;;;;;6.90;1.23;;;5.30;59.60;;;;;;4432405;32;20116;-65
2022/03/14 02:57:10;;;;;;;3.50;1.30;;;5.20;59.80;;;;;;4437814;32;20514;-65
2022/03/14 02:59:36;;;;;;;2.22;1.77;;;5.20;59.90;;;;;;4430159;32;20472;-65
2022/03/14 03:02:01;;;;;;;3.22;1.27;;;5.30;60.00;;;;;;4430572;32;20495;-65
2022/03/14 03:04:27;;;;;;;3.28;1.27;;;5.20;60.30;;;;;;4436358;32;20350;-65
2022/03/14 03:06:55;;;;;;;3.80;1.70;;;5.10;60.60;;;;;;4442231;32;20414;-65
2022/03/14 03:09:21;;;;;;;2.15;1.70;;;4.90;61.10;;;;;;4429393;32;20415;-65
2022/03/14 03:11:47;;;;;;;4.12;1.42;;;4.90;61.20;;;;;;4443081;32;20088;-65
2022/03/14 03:14:12;;;;;;;6.47;2.28;;;4.90;61.40;;;;;;4434498;32;20533;-65
2022/03/14 03:16:38;;;;;;;3.90;2.10;;;4.90;61.40;;;;;;4439825;32;20072;-65
2022/03/14 03:19:06;;;;;;;2.17;1.85;;;4.90;61.70;;;;;;4435138;32;20084;-65
2022/03/14 03:21:34;;;;;;;0.47;0.47;;;4.80;61.80;;;;;;4431776;32;20073;-65
2022/03/14 03:24:00;;;;;;;2.03;1.60;;;4.80;62.40;;;;;;4430598;32;20078;-65
2022/03/14 03:26:25;;;;;;;2.35;1.62;;;4.70;62.30;;;;;;4429498;32;20506;-65
2022/03/14 03:28:50;;;;;;;1.58;1.20;;;4.60;62.60;;;;;;4442218;32;20493;-65
2022/03/14 03:31:18;;;;;;;3.05;1.77;;;4.60;62.40;;;;;;4436916;32;20073;-65
2022/03/14 03:33:44;;;;;;;2.00;1.50;;;4.60;62.20;;;;;;4439215;32;20563;-65
2022/03/14 03:36:10;;;;;;;6.80;1.37;;;4.60;62.50;;;;;;4440344;32;20119;-65
2022/03/14 03:38:36;;;;;;;9.18;3.15;;;4.60;62.50;;;;;;4444240;32;20065;-65
2022/03/14 03:41:02;;;;;;;5.45;2.05;;;4.60;62.40;;;;;;4430570;32;20119;-65
2022/03/14 03:43:28;;;;;;;3.30;2.22;;;4.60;62.90;;;;;;4442296;32;20123;-65
2022/03/14 03:45:54;;;;;;;3.85;1.80;;;4.70;63.20;;;;;;4433101;32;20522;-65
2022/03/14 03:48:20;;;;;;;3.20;1.35;;;4.60;62.40;;;;;;4433923;32;20110;-65
2022/03/14 03:50:46;;;;;;;1.45;1.15;;;4.50;63.10;;;;;;4421002;32;20517;-65
2022/03/14 03:53:12;;;;;;;1.30;1.20;;;4.50;62.80;;;;;;4415588;32;20072;-66
2022/03/14 03:55:37;;;;;;;7.32;2.47;;;4.50;63.10;;;;;;4437563;32;20115;-66
2022/03/14 03:58:03;;;;;;;7.95;2.78;;;4.50;62.50;;;;;;4433844;32;20548;-65
2022/03/14 04:00:29;;;;;;;3.60;1.50;;;4.50;62.60;;;;;;4430265;32;20073;-65
2022/03/14 04:02:55;;;;;;;1.45;1.30;;;4.50;62.90;;;;;;4441276;32;20164;-66
2022/03/14 04:05:22;;;;;;;2.03;1.67;;;4.50;62.50;;;;;;4419416;32;20066;-65
2022/03/14 04:07:48;;;;;;;4.45;1.58;;;4.60;62.50;;;;;;4428720;32;20074;-65
2022/03/14 04:10:14;;;;;;;3.05;2.47;;;4.60;62.30;;;;;;4440880;32;20073;-65
2022/03/14 04:12:40;;;;;;;5.57;2.97;;;4.60;62.70;;;;;;4425812;32;20082;-65
2022/03/14 04:15:07;;;;;;;2.10;1.70;;;4.50;62.70;;;;;;4440820;32;20073;-65
2022/03/14 04:17:35;;;;;;;1.20;1.10;;;4.40;62.90;;;;;;4448750;32;20076;-65
2022/03/14 04:20:00;;;;;;;1.85;1.67;;;4.40;62.80;;;;;;4437704;32;20077;-65
2022/03/14 04:22:28;;;;;;;8.40;2.95;;;4.40;62.90;;;;;;4442281;32;20129;-65
2022/03/14 04:24:53;;;;;;;2.25;1.75;;;4.50;62.60;;;;;;4443692;32;20085;-66
2022/03/14 04:27:19;;;;;;;1.95;1.42;;;4.40;62.50;;;;;;4437751;32;20534;-66
2022/03/14 04:29:45;;;;;;;7.40;3.05;;;4.40;62.50;;;;;;4437551;32;20423;-65
2022/03/14 04:32:10;;;;;;;5.25;2.05;;;4.40;63.10;;;;;;4435609;32;20472;-66
2022/03/14 04:34:36;;;;;;;1.95;1.15;;;4.40;62.90;;;;;;4444286;32;20077;-66
2022/03/14 04:37:01;;;;;;;3.55;2.22;;;4.30;63.00;;;;;;4431074;32;20173;-66
2022/03/14 04:39:27;;;;;;;7.90;3.25;;;4.30;63.10;;;;;;4442745;32;20128;-64
2022/03/14 04:41:54;;;;;;;2.75;1.42;;;4.40;63.10;;;;;;4437933;32;20552;-64
2022/03/14 04:44:21;;;;;;;3.33;2.47;;;4.40;63.00;;;;;;4420282;32;20092;-65
2022/03/14 04:46:47;;;;;;;2.08;1.73;;;4.30;63.30;;;;;;4432988;32;20112;-64
2022/03/14 04:49:13;;;;;;;1.70;1.60;;;4.20;63.40;;;;;;4434296;32;20065;-64
2022/03/14 04:51:39;;;;;;;10.65;2.15;;;4.20;63.60;;;;;;4433804;32;20127;-65
2022/03/14 04:54:05;;;;;;;1.23;1.12;;;4.20;63.80;;;;;;4440899;32;20082;-64
2022/03/14 04:56:30;;;;;;;0.80;0.77;;;4.20;64.00;;;;;;4428344;32;20072;-65
2022/03/14 04:58:56;;;;;;;1.65;0.98;;;4.20;64.10;;;;;;4436144;32;20081;-65
2022/03/14 05:01:23;;;;;;;5.68;2.42;;;4.10;64.10;;;;;;4420177;32;20085;-65
2022/03/14 05:03:50;;;;;;;1.90;1.73;;;4.10;64.30;;;;;;4438525;32;20066;-64
2022/03/14 05:06:16;;;;;;;1.55;1.30;;;4.00;64.50;;;;;;4446245;32;20068;-64
2022/03/14 05:08:42;;;;;;;2.00;1.37;;;4.00;64.70;;;;;;4444685;32;20061;-65
2022/03/14 05:11:09;;;;;;;10.35;2.55;;;4.00;64.80;;;;;;4436337;32;20529;-64
2022/03/14 05:13:35;;;;;;;2.37;1.65;;;4.00;65.10;;;;;;4436335;32;20578;-64
2022/03/14 05:16:00;;;;;;;2.60;1.62;;;4.00;65.30;;;;;;4441113;32;20088;-64
2022/03/14 05:18:26;;;;;;;1.40;1.30;;;3.90;65.20;;;;;;4441889;32;20097;-65
2022/03/14 05:20:51;;;;;;;2.75;1.70;;;4.00;65.20;;;;;;4437115;32;20077;-64
2022/03/14 05:23:17;;;;;;;5.10;1.65;;;3.90;65.00;;;;;;4434057;32;20061;-64
2022/03/14 05:25:42;;;;;;;2.67;1.95;;;3.90;65.40;;;;;;4441077;32;20084;-64
2022/03/14 05:28:08;;;;;;;1.45;1.35;;;3.80;65.70;;;;;;4435144;32;20062;-65
2022/03/14 05:30:33;;;;;;;1.52;1.42;;;3.70;66.10;;;;;;4438064;32;20080;-65
2022/03/14 05:32:59;;;;;;;5.93;0.95;;;3.70;66.30;;;;;;4415801;32;20120;-64
2022/03/14 05:35:25;;;;;;;9.00;1.73;;;3.70;66.50;;;;;;4431045;32;20463;-64
2022/03/14 05:37:50;;;;;;;1.52;1.42;;;3.80;66.30;;;;;;4429727;32;20069;-65
2022/03/14 05:40:20;;;;;;;1.60;1.50;;;3.80;66.30;;;;;;4431089;32;20077;-65
2022/03/14 05:42:47;;;;;;;12.70;2.85;;;3.80;66.00;;;;;;4423406;32;20319;-65
2022/03/14 05:45:13;;;;;;;5.97;1.90;;;3.80;66.10;;;;;;4425900;32;20080;-64
2022/03/14 05:47:39;;;;;;;1.60;1.50;;;3.70;66.30;;;;;;4439749;32;20112;-64
2022/03/14 05:50:05;;;;;;;4.37;2.60;;;3.60;66.70;;;;;;4437679;32;20077;-65
2022/03/14 05:52:31;;;;;;;1.87;1.60;;;3.80;67.00;;;;;;4442265;32;20078;-65
2022/03/14 05:54:56;;;;;;;1.37;1.05;;;3.90;66.70;;;;;;4426753;32;20521;-65
2022/03/14 05:57:22;;;;;;;3.92;2.08;;;3.80;66.40;;;;;;4438424;32;20112;-65
2022/03/14 05:59:48;;;;;;;1.77;1.62;;;3.70;66.50;;;;;;4440889;32;20066;-65
2022/03/14 06:02:19;;;;;;;1.60;1.50;;;3.60;66.90;;;;;;4416478;32;20077;-65
2022/03/14 06:04:45;;;;;;;5.68;1.33;;;3.70;67.00;;;;;;4436105;32;20404;-65
2022/03/14 06:07:10;;;;;;;10.88;2.42;;;3.70;67.10;;;;;;4435394;32;20085;-65
2022/03/14 06:09:36;;;;;;;1.40;1.30;;;3.80;67.00;;;;;;4435916;32;20073;-65
2022/03/14 06:12:02;;;;;;;9.48;2.40;;;3.90;66.60;;;;;;4436828;32;20121;-65
2022/03/14 06:14:27;;;;;;;5.00;3.00;;;4.00;66.50;;;;;;4420795;32;20097;-64
2022/03/14 06:16:53;;;;;;;5.53;2.92;;;4.00;66.40;;;;;;4429419;32;20206;-65
2022/03/14 06:19:18;;;;;;;4.55;2.67;;;3.90;66.50;;;;;;4429659;32;20073;-65
2022/03/14 06:21:44;;;;;;;9.15;2.40;;;3.80;67.00;;;;;;4433337;32;20064;-65
2022/03/14 06:24:09;;;;;;;1.00;1.00;;;3.90;67.00;;;;;;4436046;32;20077;-65
2022/03/14 06:26:35;;;;;;;4.22;2.37;;;3.90;66.80;;;;;;4426471;32;20580;-66
2022/03/14 06:29:04;;;;;;;1.52;1.37;;;4.00;66.80;;;;;;4429865;32;20440;-66
2022/03/14 06:31:31;;;;;;;3.05;2.12;;;4.10;66.90;;;;;;4411134;32;21546;-66
2022/03/14 06:33:58;;;;;;;2.78;1.67;;;4.20;66.40;;;;;;4429453;32;20160;-66
2022/03/14 06:36:27;;;;;;;1.50;1.40;;;4.20;65.90;;;;;;4434206;32;20094;-66
2022/03/14 06:38:56;;;;;;;4.35;2.28;;;4.30;65.50;;;;;;4429562;32;20530;-65
2022/03/14 06:41:22;;;;;;;3.00;2.12;;;4.30;65.40;;;;;;4428807;32;20066;-66
2022/03/14 06:43:48;;;;;;;1.73;1.08;;;4.40;65.10;;;;;;4431709;32;20084;-66
2022/03/14 06:46:15;;;;;;;4.97;2.15;;;4.40;65.30;;;;;;4432927;32;20481;-66
2022/03/14 06:48:42;;;;;;;3.00;2.25;;;4.50;65.30;;;;;;4418099;32;20101;-65
2022/03/14 06:51:07;;;;;;;2.28;1.33;;;4.60;64.80;;;;;;4423988;32;20139;-66
2022/03/14 06:53:33;;;;;;;4.35;2.40;;;4.60;64.20;;;;;;4410455;32;20345;-66
2022/03/14 06:55:59;;;;;;;2.53;2.17;;;4.70;64.30;;;;;;4415101;32;21061;-66
2022/03/14 06:58:25;;;;;;;2.05;1.70;;;4.80;64.20;;;;;;4418089;32;20108;-66
2022/03/14 07:00:50;;;;;;;3.03;1.83;;;4.80;64.60;;;;;;4412081;32;20144;-65
2022/03/14 07:03:16;;;;;;;3.42;1.40;;;5.00;64.50;;;;;;4403566;32;20081;-65
2022/03/14 07:05:42;;;;;;;1.87;1.65;;;5.10;63.60;;;;;;4394166;32;20671;-65
2022/03/14 07:08:10;;;;;;;4.47;2.03;;;5.20;63.50;;;;;;4397818;32;20093;-66
2022/03/14 07:10:36;;;;;;;3.40;2.30;;;5.20;63.10;;;;;;4410844;32;21533;-65
2022/03/14 07:13:02;;;;;;;1.10;1.10;;;5.20;63.20;;;;;;4393365;32;20476;-66
2022/03/14 07:15:28;;;;;;;1.87;1.60;;;5.40;63.70;;;;;;4399686;32;20102;-66
2022/03/14 07:17:53;;;;;;;3.67;1.35;;;5.50;62.50;;;;;;4410546;32;20219;-66
2022/03/14 07:20:20;;;;;;;7.03;2.90;;;5.60;62.80;;;;;;4414334;32;20790;-66
2022/03/14 07:22:48;;;;;;;1.15;1.05;;;5.80;62.10;;;;;;4408953;32;20466;-65
2022/03/14 07:25:17;;;;;;;3.33;2.05;;;5.70;62.20;;;;;;4398380;32;20084;-66
2022/03/14 07:27:42;;;;;;;3.15;1.87;;;5.70;61.60;;;;;;4418988;32;20146;-65
2022/03/14 07:30:08;;;;;;;5.43;1.95;;;5.80;61.60;;;;;;4416712;32;20596;-65
2022/03/14 07:32:34;;;;;;;2.25;1.58;;;5.90;61.90;;;;;;4411550;32;20152;-66
2022/03/14 07:34:59;;;;;;;4.32;1.85;;;6.00;61.00;;;;;;4408677;32;86081;-65
2022/03/14 07:37:25;;;;;;;4.28;1.55;;;6.10;60.80;;;;;;4408988;32;20664;-66
2022/03/14 07:39:50;;;;;;;5.93;2.15;;;6.20;60.50;;;;;;4415830;32;20097;-65
2022/03/14 07:42:16;;;;;;;3.00;1.90;;;6.30;59.90;;;;;;4413854;32;20656;-65
2022/03/14 07:44:42;;;;;;;2.00;1.73;;;6.40;60.50;;;;;;4413767;32;20507;-65
2022/03/14 07:47:10;;;;;;;7.82;2.47;;;6.50;59.50;;;;;;4411711;32;20089;-65
2022/03/14 07:49:36;;;;;;;6.32;1.02;;;6.50;58.30;;;;;;4415182;32;20084;-65
2022/03/14 07:52:02;;;;;;;1.12;1.02;;;6.30;58.50;;;;;;4413505;32;20179;-65
2022/03/14 07:54:27;;;;;;;3.28;1.73;;;6.30;58.90;;;;;;4413952;32;20089;-65
2022/03/14 07:56:53;;;;;;;14.45;4.03;;;6.50;58.90;;;;;;4412650;32;20366;-65
2022/03/14 07:59:18;;;;;;;3.92;2.33;;;6.60;58.60;;;;;;4409030;32;20974;-66
2022/03/14 08:01:44;;;;;;;2.50;1.42;;;6.70;58.10;;;;;;4408385;32;20100;-65
2022/03/14 08:04:09;;;;;;;1.70;1.35;;;6.60;58.20;;;;;;4411107;32;20138;-66
2022/03/14 08:06:41;;;;;;;2.22;1.52;;;6.70;58.30;;;;;;4412208;32;20081;-65
2022/03/14 08:09:08;;;;;;;1.55;1.27;;;6.80;58.10;;;;;;4410371;32;20403;-66
2022/03/14 08:11:35;;;;;;;2.97;1.85;;;6.90;57.80;;;;;;4410352;32;20089;-65
2022/03/14 08:14:01;;;;;;;6.65;1.40;;;7.00;58.00;;;;;;4406493;32;20100;-65
2022/03/14 08:16:27;;;;;;;2.85;1.90;;;7.00;58.00;;;;;;4406164;32;20097;-66
2022/03/14 08:18:53;;;;;;;2.78;1.87;;;7.10;57.80;;;;;;4408870;32;20250;-66
2022/03/14 08:21:18;;;;;;;1.98;1.65;;;7.20;57.20;;;;;;4408759;32;20131;-66
2022/03/14 08:23:45;;;;;;;1.15;1.12;;;7.40;57.60;;;;;;4406875;32;20190;-65
2022/03/14 08:26:10;;;;;;;21.08;1.60;;;7.60;57.40;;;;;;4415452;32;20085;-66
2022/03/14 08:28:36;;;;;;;1.62;1.40;;;7.60;56.70;;;;;;4406715;32;20180;-65
2022/03/14 08:31:01;;;;;;;2.87;1.65;;;7.80;57.10;;;;;;4411904;32;20460;-66
2022/03/14 08:33:28;;;;;;;2.33;1.95;;;7.80;55.60;;;;;;4396500;32;20486;-66
2022/03/14 08:35:59;;;;;;;0.98;0.98;;;7.80;55.60;;;;;;4393590;32;20179;-66
2022/03/14 08:38:25;;;;;;;4.80;2.45;;;7.90;56.00;;;;;;4413981;32;20077;-66
2022/03/14 08:40:50;;;;;;;2.80;1.35;;;8.10;55.60;;;;;;4402392;32;20074;-66
2022/03/14 08:43:16;;;;;;;18.23;1.98;;;8.10;55.40;;;;;;4411239;32;20097;-66
2022/03/14 08:45:43;;;;;;;4.07;1.23;;;8.20;55.20;;;;;;4399408;32;20798;-66
2022/03/14 08:48:11;;;;;;;1.75;0.75;;;8.30;54.80;;;;;;4402266;32;20141;-67
2022/03/14 08:50:38;;;;;;;5.25;1.62;;;8.30;55.10;;;;;;4381350;32;20249;-67
2022/03/14 08:53:04;;;;;;;3.30;1.52;;;8.60;54.90;;;;;;4376220;32;20714;-67
2022/03/14 08:55:29;;;;;;;1.37;1.27;;;8.50;54.50;;;;;;4388218;32;20203;-66
2022/03/14 08:57:55;;;;;;;7.25;1.67;;;8.50;54.60;;;;;;4366323;32;20466;-66
2022/03/14 09:00:27;;;;;;;1.70;1.12;;;8.60;54.40;;;;;;4383910;32;20113;-66
2022/03/14 09:02:53;;;;;;;1.33;1.00;;;8.80;54.40;;;;;;4396218;32;20108;-66
2022/03/14 09:05:19;;;;;;;0.80;0.80;;;8.90;53.30;;;;;;4385463;32;20120;-65
2022/03/14 09:07:45;;;;;;;1.00;1.00;;;8.90;53.20;;;;;;4387437;32;20084;-65
2022/03/14 09:10:12;;;;;;;1.77;0.95;;;9.00;52.90;;;;;;4401260;32;20109;-66
2022/03/14 09:12:39;;;;;;;0.60;0.60;;;9.20;53.00;;;;;;4400418;32;20085;-65
2022/03/14 09:15:07;;;;;;;2.85;1.20;;;9.40;52.80;;;;;;4394067;32;20146;-65
2022/03/14 09:17:34;;;;;;;2.33;1.48;;;9.50;52.50;;;;;;4404177;32;20136;-65
2022/03/14 09:20:01;;;;;;;5.45;2.70;;;9.50;52.30;;;;;;4389750;32;20104;-66
2022/03/14 09:22:27;;;;;;;1.25;1.15;;;9.50;52.70;;;;;;4398361;32;20576;-66
2022/03/14 09:24:55;;;;;;;11.38;0.90;;;9.50;52.90;;;;;;4401378;32;20511;-65
2022/03/14 09:27:23;;;;;;;2.75;1.42;;;9.60;53.30;;;;;;4390518;32;21950;-65
2022/03/14 09:29:50;;;;;;;2.70;1.30;;;9.90;52.30;;;;;;4400792;32;20097;-66
2022/03/14 09:32:16;;;;;;;0.68;0.68;;;9.80;52.20;;;;;;4401124;32;20616;-65
2022/03/14 09:34:42;;;;;;;1.55;1.10;;;9.90;51.90;;;;;;4399879;32;20170;-66
2022/03/14 09:37:08;;;;;;;5.53;1.42;;;10.10;52.30;;;;;;4392369;32;20090;-65
2022/03/14 09:39:34;;;;;;;0.80;0.80;;;10.30;52.50;;;;;;4402832;32;20290;-65
2022/03/14 09:42:01;;;;;;;2.92;1.33;;;10.40;52.00;;;;;;4399658;32;20073;-66
2022/03/14 09:44:29;;;;;;;2.45;1.35;;;10.70;52.20;;;;;;4409647;32;20317;-66
2022/03/14 09:47:00;;;;;;;0.93;0.90;;;10.80;51.30;;;;;;4417997;32;21312;-66
2022/03/14 09:49:27;;;;;;;2.72;1.30;;;10.90;50.90;;;;;;4408588;32;20742;-66
2022/03/14 09:51:53;;;;;;;1.10;1.00;;;11.10;51.10;;;;;;4407096;32;20192;-66
2022/03/14 09:54:21;;;;;;;3.22;1.98;;;10.80;50.70;;;;;;4407483;32;20524;-65
2022/03/14 09:56:48;;;;;;;1.33;0.98;;;11.00;51.20;;;;;;4386216;32;20780;-65
2022/03/14 09:59:13;;;;;;;2.78;1.10;;;11.20;51.10;;;;;;4406441;32;20848;-66
2022/03/14 10:01:40;;;;;;;1.95;1.27;;;11.50;50.80;;;;;;4399092;32;20155;-66
2022/03/14 10:04:08;;;;;;;0.85;0.85;;;11.40;50.70;;;;;;4404944;32;21048;-65
2022/03/14 10:06:34;;;;;;;0.77;0.77;;;11.70;50.10;;;;;;4401057;32;20104;-65
2022/03/14 10:08:59;;;;;;;2.05;0.98;;;11.50;50.60;;;;;;4409120;32;20085;-65
2022/03/14 10:11:25;;;;;;;2.12;1.70;;;11.50;51.00;;;;;;4403526;32;20864;-65
2022/03/14 10:13:50;;;;;;;1.50;1.23;;;12.00;50.30;;;;;;4413076;32;20120;-65
2022/03/14 10:16:16;;;;;;;0.60;0.60;;;11.70;50.30;;;;;;4411729;32;20758;-65
2022/03/14 10:19:02;;;;;;;1.33;0.90;;;11.90;50.50;;;;;;4401218;32;20405;-65
2022/03/14 10:21:33;;;;;;;1.50;1.30;;;12.00;50.30;;;;;;4401130;32;20121;-65
2022/03/14 10:24:02;;;;;;;1.30;1.20;;;12.20;50.00;;;;;;4401109;32;20461;-65
2022/03/14 10:26:29;;;;;;;1.45;0.73;;;12.20;49.90;;;;;;4398207;32;20801;-65
2022/03/14 10:28:56;;;;;;;0.95;0.88;;;12.50;49.90;;;;;;4413003;32;20072;-67
2022/03/14 10:31:32;;;;;;;0.65;0.65;;;12.70;50.10;;;;;;4398854;32;20367;-66
2022/03/14 10:34:04;;;;;;;2.20;1.58;;;12.60;49.50;;;;;;4386962;32;20096;-65
2022/03/14 10:36:38;;;;;;;69.45;2.72;;;12.70;49.40;;;;;;4394788;32;20206;-65
2022/03/14 10:39:21;;;;;;;3.80;2.22;;;13.10;48.90;;;;;;4399731;32;20085;-65
2022/03/14 10:42:04;;;;;;;1.52;1.30;;;12.90;48.80;;;;;;4393607;32;20089;-65
2022/03/14 10:44:30;;;;;;;1.87;1.40;;;12.90;49.70;;;;;;4394379;32;20101;-65
2022/03/14 10:47:05;;;;;;;0.88;0.75;;;12.90;47.60;;;;;;4402052;32;20089;-65
2022/03/14 10:49:33;;;;;;;2.12;1.12;;;13.10;47.80;;;;;;4395449;32;20074;-65
2022/03/14 10:52:01;;;;;;;0.90;0.90;;;13.40;47.80;;;;;;4385309;32;20380;-65
2022/03/14 10:54:27;;;;;;;2.35;0.80;;;13.50;46.60;;;;;;4398247;32;20100;-65
2022/03/14 10:57:03;;;;;;;3.65;1.20;;;13.40;46.60;;;;;;4403219;32;20074;-65
2022/03/14 10:59:34;;;;;;;1.02;1.00;;;13.40;47.00;;;;;;4400898;32;20140;-65
2022/03/14 11:02:00;;;;;;;;;;;13.50;47.40;;;;;;4397916;32;20219;-65
2022/03/14 11:04:27;;;;;;;1.35;0.62;;;13.60;47.10;;;;;;4390752;32;20409;-65
2022/03/14 11:07:00;;;;;;;0.70;0.70;;;13.70;46.90;;;;;;4399718;32;20089;-65
2022/03/14 11:09:51;;;;;;;0.50;0.50;;;13.80;46.90;;;;;;4377089;32;21442;-65
2022/03/14 11:12:19;;;;;;;2.35;1.12;;;14.00;46.70;;;;;;4397428;32;20085;-65
2022/03/14 11:14:52;;;;;;;1.62;0.90;;;13.90;46.40;;;;;;4381736;32;20761;-65
2022/03/14 11:17:24;;;;;;;4.62;1.05;;;13.90;46.50;;;;;;4391178;32;20173;-65
2022/03/14 11:19:51;;;;;;;4.95;0.80;;;14.00;46.50;;;;;;4395914;32;20435;-65
2022/03/14 11:22:17;;;;;;;2.70;1.62;;;14.10;46.00;;;;;;4395066;32;20077;-65
2022/03/14 11:24:49;;;;;;;2.83;1.45;;;14.20;46.30;;;;;;4394678;32;20066;-65
2022/03/14 11:27:25;;;;;;;2.55;1.52;;;14.50;46.00;;;;;;4389922;32;20080;-65
2022/03/14 11:29:53;;;;;;;1.17;1.08;;;14.60;46.00;;;;;;4398043;32;20219;-66
2022/03/14 11:32:19;;;;;;;1.52;1.15;;;14.60;46.20;;;;;;4402263;32;20074;-65
2022/03/14 11:34:46;;;;;;;0.95;0.95;;;14.70;45.60;;;;;;4386000;32;20100;-66
2022/03/14 11:37:12;;;;;;;0.88;0.88;;;14.80;45.60;;;;;;4410268;32;20162;-66
2022/03/14 11:39:39;;;;;;;1.05;0.95;;;14.80;45.70;;;;;;4395073;32;20532;-66
2022/03/14 11:42:05;;;;;;;3.83;1.75;;;15.50;45.20;;;;;;4404908;32;20114;-67
2022/03/14 11:44:31;;;;;;;0.80;0.80;;;15.90;44.20;;;;;;4408242;32;20082;-67
2022/03/14 11:46:58;;;;;;;1.12;1.02;;;16.10;44.40;;;;;;4403092;32;20066;-67
2022/03/14 11:49:27;;;;;;;1.00;0.90;;;16.20;44.40;;;;;;4395476;32;20139;-67
2022/03/14 11:52:07;;;;;;;2.22;1.55;;;16.10;44.40;;;;;;4387053;32;20091;-66
2022/03/14 11:54:38;;;;;;;1.85;0.77;;;16.60;43.80;;;;;;4399084;32;20101;-69
2022/03/14 11:57:03;;;;;;;2.67;1.55;;;16.60;43.00;;;;;;4391174;32;20109;-67
2022/03/14 11:59:31;;;;;;;3.80;1.77;;;16.20;44.80;;;;;;4388390;32;20077;-67
2022/03/14 12:02:00;;;;;;;2.62;1.00;;;15.80;44.90;;;;;;4392660;32;20097;-66
2022/03/14 12:04:41;;;;;;;0.80;0.80;;;15.20;45.10;;;;;;4394300;32;20816;-66
2022/03/14 12:07:08;;;;;;;2.65;1.17;;;15.10;46.30;;;;;;4400760;32;20081;-66
2022/03/14 12:09:38;;;;;;;4.00;1.52;;;15.50;45.60;;;;;;4401945;32;20509;-66
2022/03/14 12:12:24;;;;;;;1.65;1.20;;;15.80;45.80;;;;;;4401579;32;20097;-66
2022/03/14 12:14:56;;;;;;;1.25;1.00;;;15.80;45.40;;;;;;4387288;32;20077;-66
2022/03/14 12:17:23;;;;;;;0.80;0.80;;;15.40;45.60;;;;;;4399424;32;20108;-67
2022/03/14 12:20:00;;;;;;;1.58;1.35;;;15.00;47.10;;;;;;4400121;32;20541;-66
2022/03/14 12:22:32;;;;;;;1.77;1.35;;;14.70;47.10;;;;;;4383798;32;20085;-66
2022/03/14 12:24:59;;;;;;;2.75;1.52;;;14.60;47.10;;;;;;4400506;32;20118;-65
2022/03/14 12:27:29;;;;;;;3.95;1.80;;;14.30;47.50;;;;;;4399606;32;21667;-66
2022/03/14 12:29:57;;;;;;;1.10;1.00;;;14.10;48.10;;;;;;4406559;32;21395;-66
2022/03/14 12:32:28;;;;;;;5.22;0.90;;;14.10;48.60;;;;;;4381555;32;20630;-66
2022/03/14 12:34:57;;;;;;;1.17;0.80;;;14.10;48.30;;;;;;4409535;32;20157;-67
2022/03/14 12:37:26;;;;;;;9.40;1.12;;;14.20;48.30;;;;;;4409770;32;20088;-66
2022/03/14 12:39:51;;;;;;;5.07;1.62;;;14.20;48.70;;;;;;4421213;32;20077;-66
2022/03/14 12:42:21;;;;;;;0.75;0.60;;;14.50;48.30;;;;;;4404647;32;20713;-66
2022/03/14 12:45:27;;;;;;;1.35;0.90;;;14.90;47.80;;;;;;4407887;32;20102;-66
2022/03/14 12:47:58;;;;;;;1.67;1.02;;;15.30;47.40;;;;;;4379087;32;20121;-66
2022/03/14 12:50:51;;;;;;;2.58;1.58;;;15.90;46.60;;;;;;4411603;32;20109;-66
2022/03/14 12:53:33;;;;;;;5.43;1.05;;;15.90;45.80;;;;;;4387630;32;20100;-65
2022/03/14 12:56:01;;;;;;;7.85;2.65;;;15.20;46.70;;;;;;4411968;32;20097;-66